sensor_id;sensor_type;location;lat;lon;timestamp;temperature;humidity
26479;DHT22;14163;-26.142;27.992;2022-09-02T00:01:46;17.70;63.50
26479;DHT22;14163;-26.142;27.992;2022-09-02T00:04:18;17.70;64.20
26479;DHT22;14163;-26.142;27.992;2022-09-02T00:06:50;17.60;64.60
26479;DHT22;14163;-26.142;27.992;2022-09-02T00:09:21;17.60;65.20
26479;DHT22;14163;-26.142;27.992;2022-09-02T00:11:52;17.50;65.40
26479;DHT22;14163;-26.142;27.992;2022-09-02T00:14:25;17.40;65.70
26479;DHT22;14163;-26.142;27.992;2022-09-02T00:16:56;17.40;65.80
26479;DHT22;14163;-26.142;27.992;2022-09-02T00:19:27;17.30;65.40
26479;DHT22;14163;-26.142;27.992;2022-09-02T00:21:57;17.30;65.80
26479;DHT22;14163;-26.142;27.992;2022-09-02T00:24:28;17.20;64.90
26479;DHT22;14163;-26.142;27.992;2022-09-02T00:26:57;17.10;65.70
26479;DHT22;14163;-26.142;27.992;2022-09-02T00:29:27;17.10;66.10
26479;DHT22;14163;-26.142;27.992;2022-09-02T00:31:58;17.10;66.70
26479;DHT22;14163;-26.142;27.992;2022-09-02T00:34:27;17.10;67.10
26479;DHT22;14163;-26.142;27.992;2022-09-02T00:36:57;17.10;67.10
26479;DHT22;14163;-26.142;27.992;2022-09-02T00:39:26;17.00;67.20
26479;DHT22;14163;-26.142;27.992;2022-09-02T00:41:55;17.00;67.50
26479;DHT22;14163;-26.142;27.992;2022-09-02T00:44:24;17.00;67.60
26479;DHT22;14163;-26.142;27.992;2022-09-02T00:46:54;17.00;67.80
26479;DHT22;14163;-26.142;27.992;2022-09-02T00:49:26;17.10;68.20
26479;DHT22;14163;-26.142;27.992;2022-09-02T00:52:00;17.10;68.20
26479;DHT22;14163;-26.142;27.992;2022-09-02T00:54:33;17.10;68.30
26479;DHT22;14163;-26.142;27.992;2022-09-02T00:57:07;17.10;68.60
26479;DHT22;14163;-26.142;27.992;2022-09-02T00:59:42;17.10;69.20
26479;DHT22;14163;-26.142;27.992;2022-09-02T01:02:15;17.00;70.10
26479;DHT22;14163;-26.142;27.992;2022-09-02T01:04:46;16.90;69.90
26479;DHT22;14163;-26.142;27.992;2022-09-02T01:07:15;16.90;69.30
26479;DHT22;14163;-26.142;27.992;2022-09-02T01:09:45;16.80;68.90
26479;DHT22;14163;-26.142;27.992;2022-09-02T01:12:14;16.80;69.50
26479;DHT22;14163;-26.142;27.992;2022-09-02T01:14:43;16.70;70.20
26479;DHT22;14163;-26.142;27.992;2022-09-02T01:17:13;16.60;70.40
26479;DHT22;14163;-26.142;27.992;2022-09-02T01:19:49;16.60;70.30
26479;DHT22;14163;-26.142;27.992;2022-09-02T01:22:22;16.60;69.50
26479;DHT22;14163;-26.142;27.992;2022-09-02T01:24:52;16.60;69.40
26479;DHT22;14163;-26.142;27.992;2022-09-02T01:27:23;16.60;70.00
26479;DHT22;14163;-26.142;27.992;2022-09-02T01:29:55;16.60;68.30
26479;DHT22;14163;-26.142;27.992;2022-09-02T01:32:26;16.60;66.30
26479;DHT22;14163;-26.142;27.992;2022-09-02T01:34:55;16.60;63.50
26479;DHT22;14163;-26.142;27.992;2022-09-02T01:37:27;16.50;62.80
26479;DHT22;14163;-26.142;27.992;2022-09-02T01:39:57;16.50;65.10
26479;DHT22;14163;-26.142;27.992;2022-09-02T01:42:26;16.50;63.70
26479;DHT22;14163;-26.142;27.992;2022-09-02T01:44:56;16.60;63.70
26479;DHT22;14163;-26.142;27.992;2022-09-02T01:47:26;16.60;63.80
26479;DHT22;14163;-26.142;27.992;2022-09-02T01:49:56;16.70;64.00
26479;DHT22;14163;-26.142;27.992;2022-09-02T01:52:28;16.70;64.00
26479;DHT22;14163;-26.142;27.992;2022-09-02T01:54:57;16.70;66.40
26479;DHT22;14163;-26.142;27.992;2022-09-02T01:57:27;16.70;64.90
26479;DHT22;14163;-26.142;27.992;2022-09-02T01:59:56;16.60;66.30
26479;DHT22;14163;-26.142;27.992;2022-09-02T02:02:27;16.60;67.40
26479;DHT22;14163;-26.142;27.992;2022-09-02T02:04:57;16.50;67.70
26479;DHT22;14163;-26.142;27.992;2022-09-02T02:07:28;16.40;68.20
26479;DHT22;14163;-26.142;27.992;2022-09-02T02:09:57;16.40;68.20
26479;DHT22;14163;-26.142;27.992;2022-09-02T02:12:26;16.40;67.30
26479;DHT22;14163;-26.142;27.992;2022-09-02T02:14:55;16.40;66.90
26479;DHT22;14163;-26.142;27.992;2022-09-02T02:17:24;16.50;67.50
26479;DHT22;14163;-26.142;27.992;2022-09-02T02:19:54;16.50;65.20
26479;DHT22;14163;-26.142;27.992;2022-09-02T02:22:23;16.40;65.80
26479;DHT22;14163;-26.142;27.992;2022-09-02T02:24:54;16.30;67.20
26479;DHT22;14163;-26.142;27.992;2022-09-02T02:27:23;16.30;67.70
26479;DHT22;14163;-26.142;27.992;2022-09-02T02:29:53;16.20;68.00
26479;DHT22;14163;-26.142;27.992;2022-09-02T02:32:23;16.20;68.80
26479;DHT22;14163;-26.142;27.992;2022-09-02T02:34:52;16.30;68.80
26479;DHT22;14163;-26.142;27.992;2022-09-02T02:37:22;16.30;68.70
26479;DHT22;14163;-26.142;27.992;2022-09-02T02:39:53;16.30;68.80
26479;DHT22;14163;-26.142;27.992;2022-09-02T02:42:22;16.30;69.10
26479;DHT22;14163;-26.142;27.992;2022-09-02T02:44:51;16.30;69.00
26479;DHT22;14163;-26.142;27.992;2022-09-02T02:47:20;16.30;69.30
26479;DHT22;14163;-26.142;27.992;2022-09-02T02:49:50;16.20;69.40
26479;DHT22;14163;-26.142;27.992;2022-09-02T02:52:20;16.20;69.50
26479;DHT22;14163;-26.142;27.992;2022-09-02T02:54:49;16.20;69.40
26479;DHT22;14163;-26.142;27.992;2022-09-02T02:57:20;16.20;69.40
26479;DHT22;14163;-26.142;27.992;2022-09-02T02:59:49;16.10;69.50
26479;DHT22;14163;-26.142;27.992;2022-09-02T03:02:18;16.00;70.10
26479;DHT22;14163;-26.142;27.992;2022-09-02T03:04:47;16.00;70.50
26479;DHT22;14163;-26.142;27.992;2022-09-02T03:07:20;15.90;70.90
26479;DHT22;14163;-26.142;27.992;2022-09-02T03:09:49;15.80;71.20
26479;DHT22;14163;-26.142;27.992;2022-09-02T03:12:20;15.90;71.20
26479;DHT22;14163;-26.142;27.992;2022-09-02T03:14:49;15.90;71.50
26479;DHT22;14163;-26.142;27.992;2022-09-02T03:17:19;15.90;71.40
26479;DHT22;14163;-26.142;27.992;2022-09-02T03:19:48;15.90;71.50
26479;DHT22;14163;-26.142;27.992;2022-09-02T03:22:18;15.90;71.30
26479;DHT22;14163;-26.142;27.992;2022-09-02T03:24:47;15.80;71.20
26479;DHT22;14163;-26.142;27.992;2022-09-02T03:27:17;15.80;71.30
26479;DHT22;14163;-26.142;27.992;2022-09-02T03:29:47;15.80;71.20
26479;DHT22;14163;-26.142;27.992;2022-09-02T03:32:17;15.80;71.70
26479;DHT22;14163;-26.142;27.992;2022-09-02T03:34:46;15.80;71.80
26479;DHT22;14163;-26.142;27.992;2022-09-02T03:37:16;15.80;71.70
26479;DHT22;14163;-26.142;27.992;2022-09-02T03:39:45;15.80;71.70
26479;DHT22;14163;-26.142;27.992;2022-09-02T03:42:14;15.80;71.70
26479;DHT22;14163;-26.142;27.992;2022-09-02T03:44:43;15.80;71.40
26479;DHT22;14163;-26.142;27.992;2022-09-02T03:47:15;15.80;70.60
26479;DHT22;14163;-26.142;27.992;2022-09-02T03:49:47;15.80;70.50
26479;DHT22;14163;-26.142;27.992;2022-09-02T03:52:16;15.70;70.70
26479;DHT22;14163;-26.142;27.992;2022-09-02T03:54:45;15.70;71.30
26479;DHT22;14163;-26.142;27.992;2022-09-02T03:57:15;15.60;71.80
26479;DHT22;14163;-26.142;27.992;2022-09-02T03:59:44;15.60;72.40
26479;DHT22;14163;-26.142;27.992;2022-09-02T04:02:15;15.60;73.00
26479;DHT22;14163;-26.142;27.992;2022-09-02T04:04:44;15.50;73.60
26479;DHT22;14163;-26.142;27.992;2022-09-02T04:07:14;15.50;73.80
26479;DHT22;14163;-26.142;27.992;2022-09-02T04:09:43;15.40;73.70
26479;DHT22;14163;-26.142;27.992;2022-09-02T04:12:13;15.40;73.90
26479;DHT22;14163;-26.142;27.992;2022-09-02T04:14:42;15.40;73.90
26479;DHT22;14163;-26.142;27.992;2022-09-02T04:17:11;15.30;74.10
26479;DHT22;14163;-26.142;27.992;2022-09-02T04:19:42;15.30;74.10
26479;DHT22;14163;-26.142;27.992;2022-09-02T04:22:11;15.40;73.90
26479;DHT22;14163;-26.142;27.992;2022-09-02T04:24:40;15.40;73.70
26479;DHT22;14163;-26.142;27.992;2022-09-02T04:27:10;15.40;73.90
26479;DHT22;14163;-26.142;27.992;2022-09-02T04:29:39;15.40;73.80
26479;DHT22;14163;-26.142;27.992;2022-09-02T04:32:08;15.40;73.90
26479;DHT22;14163;-26.142;27.992;2022-09-02T04:34:37;15.40;73.80
26479;DHT22;14163;-26.142;27.992;2022-09-02T04:37:08;15.40;73.90
26479;DHT22;14163;-26.142;27.992;2022-09-02T04:39:39;15.40;73.90
26479;DHT22;14163;-26.142;27.992;2022-09-02T04:42:08;15.40;74.30
26479;DHT22;14163;-26.142;27.992;2022-09-02T04:44:37;15.30;74.30
26479;DHT22;14163;-26.142;27.992;2022-09-02T04:47:06;15.30;74.80
26479;DHT22;14163;-26.142;27.992;2022-09-02T04:49:35;15.20;75.00
26479;DHT22;14163;-26.142;27.992;2022-09-02T04:52:05;15.20;75.20
26479;DHT22;14163;-26.142;27.992;2022-09-02T04:54:36;15.20;75.60
26479;DHT22;14163;-26.142;27.992;2022-09-02T04:57:05;15.20;75.60
26479;DHT22;14163;-26.142;27.992;2022-09-02T04:59:35;15.30;75.10
26479;DHT22;14163;-26.142;27.992;2022-09-02T05:02:04;15.30;74.80
26479;DHT22;14163;-26.142;27.992;2022-09-02T05:04:34;15.40;74.40
26479;DHT22;14163;-26.142;27.992;2022-09-02T05:07:03;15.40;74.00
26479;DHT22;14163;-26.142;27.992;2022-09-02T05:09:33;15.40;73.70
26479;DHT22;14163;-26.142;27.992;2022-09-02T05:12:04;15.50;73.60
26479;DHT22;14163;-26.142;27.992;2022-09-02T05:14:33;15.60;73.60
26479;DHT22;14163;-26.142;27.992;2022-09-02T05:17:03;15.70;73.30
26479;DHT22;14163;-26.142;27.992;2022-09-02T05:19:32;15.80;72.80
26479;DHT22;14163;-26.142;27.992;2022-09-02T05:22:01;15.80;72.60
26479;DHT22;14163;-26.142;27.992;2022-09-02T05:24:31;15.90;72.70
26479;DHT22;14163;-26.142;27.992;2022-09-02T05:27:00;15.90;72.70
26479;DHT22;14163;-26.142;27.992;2022-09-02T05:29:31;16.00;72.10
26479;DHT22;14163;-26.142;27.992;2022-09-02T05:32:00;16.10;71.90
26479;DHT22;14163;-26.142;27.992;2022-09-02T05:34:30;16.10;72.00
26479;DHT22;14163;-26.142;27.992;2022-09-02T05:36:59;16.20;70.50
26479;DHT22;14163;-26.142;27.992;2022-09-02T05:39:28;16.30;70.30
26479;DHT22;14163;-26.142;27.992;2022-09-02T05:41:58;16.30;70.50
26479;DHT22;14163;-26.142;27.992;2022-09-02T05:44:29;16.40;69.10
26479;DHT22;14163;-26.142;27.992;2022-09-02T05:46:58;16.40;68.50
26479;DHT22;14163;-26.142;27.992;2022-09-02T05:49:27;16.40;68.50
26479;DHT22;14163;-26.142;27.992;2022-09-02T05:51:58;16.50;68.70
26479;DHT22;14163;-26.142;27.992;2022-09-02T05:54:29;16.60;68.70
26479;DHT22;14163;-26.142;27.992;2022-09-02T05:57:01;16.60;67.10
26479;DHT22;14163;-26.142;27.992;2022-09-02T05:59:32;16.70;67.50
26479;DHT22;14163;-26.142;27.992;2022-09-02T06:02:02;16.70;68.20
26479;DHT22;14163;-26.142;27.992;2022-09-02T06:04:35;16.70;66.60
26479;DHT22;14163;-26.142;27.992;2022-09-02T06:07:05;16.70;65.20
26479;DHT22;14163;-26.142;27.992;2022-09-02T06:09:34;16.60;65.70
26479;DHT22;14163;-26.142;27.992;2022-09-02T06:12:04;16.70;65.80
26479;DHT22;14163;-26.142;27.992;2022-09-02T06:14:35;16.70;64.70
26479;DHT22;14163;-26.142;27.992;2022-09-02T06:17:05;16.70;64.40
26479;DHT22;14163;-26.142;27.992;2022-09-02T06:19:35;16.60;63.90
26479;DHT22;14163;-26.142;27.992;2022-09-02T06:22:05;16.60;64.80
26479;DHT22;14163;-26.142;27.992;2022-09-02T06:24:35;16.70;64.80
26479;DHT22;14163;-26.142;27.992;2022-09-02T06:27:04;16.70;65.10
26479;DHT22;14163;-26.142;27.992;2022-09-02T06:29:35;16.70;64.40
26479;DHT22;14163;-26.142;27.992;2022-09-02T06:32:05;16.30;64.20
26479;DHT22;14163;-26.142;27.992;2022-09-02T06:34:34;16.30;65.00
26479;DHT22;14163;-26.142;27.992;2022-09-02T06:37:05;16.40;64.70
26479;DHT22;14163;-26.142;27.992;2022-09-02T06:39:34;16.30;64.20
26479;DHT22;14163;-26.142;27.992;2022-09-02T06:42:04;16.30;65.10
26479;DHT22;14163;-26.142;27.992;2022-09-02T06:44:35;16.40;65.40
26479;DHT22;14163;-26.142;27.992;2022-09-02T06:47:05;16.60;65.10
26479;DHT22;14163;-26.142;27.992;2022-09-02T06:49:34;16.70;65.70
26479;DHT22;14163;-26.142;27.992;2022-09-02T06:52:04;16.70;65.30
26479;DHT22;14163;-26.142;27.992;2022-09-02T06:54:33;16.70;65.50
26479;DHT22;14163;-26.142;27.992;2022-09-02T06:57:03;16.80;65.30
26479;DHT22;14163;-26.142;27.992;2022-09-02T06:59:34;16.70;65.40
26479;DHT22;14163;-26.142;27.992;2022-09-02T07:02:04;16.70;65.10
26479;DHT22;14163;-26.142;27.992;2022-09-02T07:04:33;16.80;65.20
26479;DHT22;14163;-26.142;27.992;2022-09-02T07:07:19;16.80;65.20
26479;DHT22;14163;-26.142;27.992;2022-09-02T07:09:48;16.90;65.30
26479;DHT22;14163;-26.142;27.992;2022-09-02T07:12:17;17.00;64.90
26479;DHT22;14163;-26.142;27.992;2022-09-02T07:14:48;17.10;64.80
26479;DHT22;14163;-26.142;27.992;2022-09-02T07:17:18;17.10;64.90
26479;DHT22;14163;-26.142;27.992;2022-09-02T07:19:47;17.10;65.40
26479;DHT22;14163;-26.142;27.992;2022-09-02T07:22:17;17.20;65.50
26479;DHT22;14163;-26.142;27.992;2022-09-02T07:24:46;17.30;66.10
26479;DHT22;14163;-26.142;27.992;2022-09-02T07:27:15;17.40;65.70
26479;DHT22;14163;-26.142;27.992;2022-09-02T07:29:47;17.50;65.50
26479;DHT22;14163;-26.142;27.992;2022-09-02T07:32:18;17.60;65.90
26479;DHT22;14163;-26.142;27.992;2022-09-02T07:34:47;17.50;66.10
26479;DHT22;14163;-26.142;27.992;2022-09-02T07:37:17;17.70;65.50
26479;DHT22;14163;-26.142;27.992;2022-09-02T07:39:46;17.70;64.90
26479;DHT22;14163;-26.142;27.992;2022-09-02T07:42:16;17.80;65.10
26479;DHT22;14163;-26.142;27.992;2022-09-02T07:44:47;17.80;65.30
26479;DHT22;14163;-26.142;27.992;2022-09-02T07:47:16;17.90;64.90
26479;DHT22;14163;-26.142;27.992;2022-09-02T07:49:45;17.80;64.50
26479;DHT22;14163;-26.142;27.992;2022-09-02T07:52:15;17.80;65.10
26479;DHT22;14163;-26.142;27.992;2022-09-02T07:54:44;17.90;65.20
26479;DHT22;14163;-26.142;27.992;2022-09-02T07:57:13;17.90;64.50
26479;DHT22;14163;-26.142;27.992;2022-09-02T07:59:42;17.90;65.10
26479;DHT22;14163;-26.142;27.992;2022-09-02T08:02:14;18.00;65.40
26479;DHT22;14163;-26.142;27.992;2022-09-02T08:04:46;18.20;65.00
26479;DHT22;14163;-26.142;27.992;2022-09-02T08:07:16;18.30;64.90
26479;DHT22;14163;-26.142;27.992;2022-09-02T08:09:50;18.30;64.80
26479;DHT22;14163;-26.142;27.992;2022-09-02T08:12:19;18.40;64.60
26479;DHT22;14163;-26.142;27.992;2022-09-02T08:14:49;18.50;64.90
26479;DHT22;14163;-26.142;27.992;2022-09-02T08:17:20;18.50;64.90
26479;DHT22;14163;-26.142;27.992;2022-09-02T08:19:49;18.60;65.50
26479;DHT22;14163;-26.142;27.992;2022-09-02T08:22:18;18.70;65.00
26479;DHT22;14163;-26.142;27.992;2022-09-02T08:24:47;18.90;65.40
26479;DHT22;14163;-26.142;27.992;2022-09-02T08:27:17;18.90;64.80
26479;DHT22;14163;-26.142;27.992;2022-09-02T08:29:46;19.10;65.00
26479;DHT22;14163;-26.142;27.992;2022-09-02T08:32:15;19.30;64.60
26479;DHT22;14163;-26.142;27.992;2022-09-02T08:34:46;19.40;64.30
26479;DHT22;14163;-26.142;27.992;2022-09-02T08:37:15;19.30;64.50
26479;DHT22;14163;-26.142;27.992;2022-09-02T08:39:46;19.30;64.60
26479;DHT22;14163;-26.142;27.992;2022-09-02T08:42:19;19.30;64.30
26479;DHT22;14163;-26.142;27.992;2022-09-02T08:44:52;19.20;64.00
26479;DHT22;14163;-26.142;27.992;2022-09-02T08:47:25;19.40;64.30
26479;DHT22;14163;-26.142;27.992;2022-09-02T08:49:59;19.60;64.10
26479;DHT22;14163;-26.142;27.992;2022-09-02T08:52:35;19.70;64.10
26479;DHT22;14163;-26.142;27.992;2022-09-02T08:55:11;19.70;64.00
26479;DHT22;14163;-26.142;27.992;2022-09-02T08:57:44;19.60;64.60
26479;DHT22;14163;-26.142;27.992;2022-09-02T09:00:15;19.50;64.00
26479;DHT22;14163;-26.142;27.992;2022-09-02T09:02:54;19.60;64.60
26479;DHT22;14163;-26.142;27.992;2022-09-02T09:05:36;19.70;64.50
26479;DHT22;14163;-26.142;27.992;2022-09-02T09:08:15;19.90;64.10
26479;DHT22;14163;-26.142;27.992;2022-09-02T09:10:54;20.20;64.10
26479;DHT22;14163;-26.142;27.992;2022-09-02T09:13:54;20.30;64.00
26479;DHT22;14163;-26.142;27.992;2022-09-02T09:16:34;20.30;63.40
26479;DHT22;14163;-26.142;27.992;2022-09-02T09:19:11;20.10;63.40
26479;DHT22;14163;-26.142;27.992;2022-09-02T09:21:42;20.00;64.00
26479;DHT22;14163;-26.142;27.992;2022-09-02T09:24:22;20.20;63.60
26479;DHT22;14163;-26.142;27.992;2022-09-02T09:26:54;20.40;63.50
26479;DHT22;14163;-26.142;27.992;2022-09-02T09:29:24;20.70;63.10
26479;DHT22;14163;-26.142;27.992;2022-09-02T09:31:56;20.90;62.90
26479;DHT22;14163;-26.142;27.992;2022-09-02T09:34:59;20.90;62.10
26479;DHT22;14163;-26.142;27.992;2022-09-02T09:37:32;20.90;62.20
26479;DHT22;14163;-26.142;27.992;2022-09-02T09:40:26;21.00;61.80
26479;DHT22;14163;-26.142;27.992;2022-09-02T09:42:57;21.00;61.70
26479;DHT22;14163;-26.142;27.992;2022-09-02T09:45:30;21.00;62.00
26479;DHT22;14163;-26.142;27.992;2022-09-02T09:48:17;21.20;62.10
26479;DHT22;14163;-26.142;27.992;2022-09-02T09:53:35;21.50;61.50
26479;DHT22;14163;-26.142;27.992;2022-09-02T09:56:05;21.50;61.20
26479;DHT22;14163;-26.142;27.992;2022-09-02T09:58:44;21.80;61.50
26479;DHT22;14163;-26.142;27.992;2022-09-02T10:01:16;22.10;60.40
26479;DHT22;14163;-26.142;27.992;2022-09-02T10:03:49;22.20;60.90
26479;DHT22;14163;-26.142;27.992;2022-09-02T10:06:21;22.50;60.00
26479;DHT22;14163;-26.142;27.992;2022-09-02T10:08:55;22.60;60.00
26479;DHT22;14163;-26.142;27.992;2022-09-02T10:11:26;22.90;59.40
26479;DHT22;14163;-26.142;27.992;2022-09-02T10:13:59;23.30;59.40
26479;DHT22;14163;-26.142;27.992;2022-09-02T10:16:40;24.00;58.60
26479;DHT22;14163;-26.142;27.992;2022-09-02T10:19:28;24.90;58.10
26479;DHT22;14163;-26.142;27.992;2022-09-02T10:22:25;26.10;56.30
26479;DHT22;14163;-26.142;27.992;2022-09-02T10:25:06;27.30;54.90
26479;DHT22;14163;-26.142;27.992;2022-09-02T10:27:46;29.00;53.20
26479;DHT22;14163;-26.142;27.992;2022-09-02T10:30:20;29.60;52.30
26479;DHT22;14163;-26.142;27.992;2022-09-02T10:33:13;30.30;51.30
26479;DHT22;14163;-26.142;27.992;2022-09-02T10:35:46;30.20;50.60
26479;DHT22;14163;-26.142;27.992;2022-09-02T10:38:32;30.40;50.10
26479;DHT22;14163;-26.142;27.992;2022-09-02T10:41:15;31.10;48.90
26479;DHT22;14163;-26.142;27.992;2022-09-02T10:43:59;31.30;49.10
26479;DHT22;14163;-26.142;27.992;2022-09-02T10:46:40;32.30;48.50
26479;DHT22;14163;-26.142;27.992;2022-09-02T10:49:17;33.00;47.50
26479;DHT22;14163;-26.142;27.992;2022-09-02T10:51:56;33.50;46.80
26479;DHT22;14163;-26.142;27.992;2022-09-02T10:54:39;34.00;46.20
26479;DHT22;14163;-26.142;27.992;2022-09-02T10:57:16;34.40;46.30
26479;DHT22;14163;-26.142;27.992;2022-09-02T10:59:51;34.30;45.20
26479;DHT22;14163;-26.142;27.992;2022-09-02T11:02:26;34.60;44.90
26479;DHT22;14163;-26.142;27.992;2022-09-02T11:05:00;34.70;44.20
26479;DHT22;14163;-26.142;27.992;2022-09-02T11:07:34;35.00;44.10
26479;DHT22;14163;-26.142;27.992;2022-09-02T11:10:08;35.10;43.90
26479;DHT22;14163;-26.142;27.992;2022-09-02T11:12:46;35.20;43.60
26479;DHT22;14163;-26.142;27.992;2022-09-02T11:15:18;34.80;43.20
26479;DHT22;14163;-26.142;27.992;2022-09-02T11:17:54;34.90;43.20
26479;DHT22;14163;-26.142;27.992;2022-09-02T11:20:31;34.70;43.30
26479;DHT22;14163;-26.142;27.992;2022-09-02T11:23:12;34.90;42.90
26479;DHT22;14163;-26.142;27.992;2022-09-02T11:25:50;34.90;42.60
26479;DHT22;14163;-26.142;27.992;2022-09-02T11:28:32;35.20;43.10
26479;DHT22;14163;-26.142;27.992;2022-09-02T11:31:07;36.10;42.90
26479;DHT22;14163;-26.142;27.992;2022-09-02T11:33:48;36.70;41.60
26479;DHT22;14163;-26.142;27.992;2022-09-02T11:36:19;37.20;41.30
26479;DHT22;14163;-26.142;27.992;2022-09-02T11:38:52;36.80;41.00
26479;DHT22;14163;-26.142;27.992;2022-09-02T11:41:27;36.60;40.80
26479;DHT22;14163;-26.142;27.992;2022-09-02T11:44:10;36.40;40.40
26479;DHT22;14163;-26.142;27.992;2022-09-02T11:49:59;35.00;41.50
26479;DHT22;14163;-26.142;27.992;2022-09-02T11:52:48;34.50;42.30
26479;DHT22;14163;-26.142;27.992;2022-09-02T11:55:21;34.60;41.90
26479;DHT22;14163;-26.142;27.992;2022-09-02T11:57:53;35.00;41.80
26479;DHT22;14163;-26.142;27.992;2022-09-02T12:00:30;35.80;41.10
26479;DHT22;14163;-26.142;27.992;2022-09-02T12:03:12;35.60;40.90
26479;DHT22;14163;-26.142;27.992;2022-09-02T12:06:04;35.60;40.80
26479;DHT22;14163;-26.142;27.992;2022-09-02T12:08:55;35.80;41.20
26479;DHT22;14163;-26.142;27.992;2022-09-02T12:11:36;36.20;40.90
26479;DHT22;14163;-26.142;27.992;2022-09-02T12:14:09;36.30;40.30
26479;DHT22;14163;-26.142;27.992;2022-09-02T12:16:59;36.30;40.50
26479;DHT22;14163;-26.142;27.992;2022-09-02T12:19:42;37.00;40.30
26479;DHT22;14163;-26.142;27.992;2022-09-02T12:22:32;37.10;39.70
26479;DHT22;14163;-26.142;27.992;2022-09-02T12:27:48;36.20;40.40
26479;DHT22;14163;-26.142;27.992;2022-09-02T12:33:37;34.30;41.20
26479;DHT22;14163;-26.142;27.992;2022-09-02T12:36:07;33.40;42.00
26479;DHT22;14163;-26.142;27.992;2022-09-02T12:38:37;32.90;42.60
26479;DHT22;14163;-26.142;27.992;2022-09-02T12:41:38;32.40;43.20
26479;DHT22;14163;-26.142;27.992;2022-09-02T12:44:22;31.70;43.60
26479;DHT22;14163;-26.142;27.992;2022-09-02T12:47:04;31.00;44.20
26479;DHT22;14163;-26.142;27.992;2022-09-02T12:49:46;30.80;44.60
26479;DHT22;14163;-26.142;27.992;2022-09-02T12:52:39;30.10;44.80
26479;DHT22;14163;-26.142;27.992;2022-09-02T12:55:17;29.80;45.40
26479;DHT22;14163;-26.142;27.992;2022-09-02T12:57:49;29.60;45.70
26479;DHT22;14163;-26.142;27.992;2022-09-02T13:00:27;29.50;45.60
26479;DHT22;14163;-26.142;27.992;2022-09-02T13:03:08;29.60;45.80
26479;DHT22;14163;-26.142;27.992;2022-09-02T13:05:52;29.70;45.90
26479;DHT22;14163;-26.142;27.992;2022-09-02T13:09:07;29.60;45.70
26479;DHT22;14163;-26.142;27.992;2022-09-02T13:12:05;29.50;46.30
26479;DHT22;14163;-26.142;27.992;2022-09-02T13:15:00;29.50;45.80
26479;DHT22;14163;-26.142;27.992;2022-09-02T13:17:46;29.40;45.90
26479;DHT22;14163;-26.142;27.992;2022-09-02T13:20:40;29.30;45.90
26479;DHT22;14163;-26.142;27.992;2022-09-02T13:26:34;29.10;46.40
26479;DHT22;14163;-26.142;27.992;2022-09-02T13:29:44;28.70;46.70
26479;DHT22;14163;-26.142;27.992;2022-09-02T13:32:22;28.40;46.70
26479;DHT22;14163;-26.142;27.992;2022-09-02T13:34:54;28.40;46.90
26479;DHT22;14163;-26.142;27.992;2022-09-02T13:37:29;28.50;47.00
26479;DHT22;14163;-26.142;27.992;2022-09-02T13:40:05;28.40;46.90
26479;DHT22;14163;-26.142;27.992;2022-09-02T13:42:35;28.10;47.30
26479;DHT22;14163;-26.142;27.992;2022-09-02T13:45:12;28.20;47.50
26479;DHT22;14163;-26.142;27.992;2022-09-02T13:47:42;28.20;47.40
26479;DHT22;14163;-26.142;27.992;2022-09-02T13:50:14;28.20;47.60
26479;DHT22;14163;-26.142;27.992;2022-09-02T13:52:46;28.30;47.40
26479;DHT22;14163;-26.142;27.992;2022-09-02T13:55:19;28.40;47.40
26479;DHT22;14163;-26.142;27.992;2022-09-02T13:57:54;28.60;47.00
26479;DHT22;14163;-26.142;27.992;2022-09-02T14:00:30;28.70;47.20
26479;DHT22;14163;-26.142;27.992;2022-09-02T14:03:02;28.60;47.10
26479;DHT22;14163;-26.142;27.992;2022-09-02T14:05:35;28.50;47.20
26479;DHT22;14163;-26.142;27.992;2022-09-02T14:08:06;28.50;47.40
26479;DHT22;14163;-26.142;27.992;2022-09-02T14:10:42;28.50;47.20
26479;DHT22;14163;-26.142;27.992;2022-09-02T14:13:13;28.60;47.70
26479;DHT22;14163;-26.142;27.992;2022-09-02T14:15:43;28.50;47.20
26479;DHT22;14163;-26.142;27.992;2022-09-02T14:18:16;28.30;47.40
26479;DHT22;14163;-26.142;27.992;2022-09-02T14:20:57;28.10;47.50
26479;DHT22;14163;-26.142;27.992;2022-09-02T14:23:28;27.90;47.70
26479;DHT22;14163;-26.142;27.992;2022-09-02T14:26:01;27.90;47.90
26479;DHT22;14163;-26.142;27.992;2022-09-02T14:28:33;27.80;47.80
26479;DHT22;14163;-26.142;27.992;2022-09-02T14:31:05;27.60;47.80
26479;DHT22;14163;-26.142;27.992;2022-09-02T14:33:39;27.40;48.10
26479;DHT22;14163;-26.142;27.992;2022-09-02T14:36:11;27.40;48.20
26479;DHT22;14163;-26.142;27.992;2022-09-02T14:39:06;27.40;48.30
26479;DHT22;14163;-26.142;27.992;2022-09-02T14:41:44;27.60;48.80
26479;DHT22;14163;-26.142;27.992;2022-09-02T14:44:20;27.70;48.20
26479;DHT22;14163;-26.142;27.992;2022-09-02T14:46:53;27.50;48.20
26479;DHT22;14163;-26.142;27.992;2022-09-02T14:49:25;27.30;48.50
26479;DHT22;14163;-26.142;27.992;2022-09-02T14:51:57;27.20;48.40
26479;DHT22;14163;-26.142;27.992;2022-09-02T14:54:35;27.30;48.70
26479;DHT22;14163;-26.142;27.992;2022-09-02T14:57:20;27.20;48.50
26479;DHT22;14163;-26.142;27.992;2022-09-02T14:59:50;27.10;48.40
26479;DHT22;14163;-26.142;27.992;2022-09-02T15:02:28;26.90;48.80
26479;DHT22;14163;-26.142;27.992;2022-09-02T15:04:59;26.90;48.80
26479;DHT22;14163;-26.142;27.992;2022-09-02T15:07:29;26.70;48.90
26479;DHT22;14163;-26.142;27.992;2022-09-02T15:09:58;26.40;49.00
26479;DHT22;14163;-26.142;27.992;2022-09-02T15:12:30;26.20;49.50
26479;DHT22;14163;-26.142;27.992;2022-09-02T15:15:00;26.20;49.60
26479;DHT22;14163;-26.142;27.992;2022-09-02T15:17:29;25.90;49.80
26479;DHT22;14163;-26.142;27.992;2022-09-02T15:19:59;25.90;50.00
26479;DHT22;14163;-26.142;27.992;2022-09-02T15:22:28;25.90;49.90
26479;DHT22;14163;-26.142;27.992;2022-09-02T15:24:57;26.10;50.00
26479;DHT22;14163;-26.142;27.992;2022-09-02T15:27:28;26.00;49.60
26479;DHT22;14163;-26.142;27.992;2022-09-02T15:29:57;25.90;49.70
26479;DHT22;14163;-26.142;27.992;2022-09-02T15:32:26;25.80;50.00
26479;DHT22;14163;-26.142;27.992;2022-09-02T15:34:55;25.80;49.90
26479;DHT22;14163;-26.142;27.992;2022-09-02T15:37:25;25.90;50.20
26479;DHT22;14163;-26.142;27.992;2022-09-02T15:39:55;25.90;50.40
26479;DHT22;14163;-26.142;27.992;2022-09-02T15:42:24;26.00;50.20
26479;DHT22;14163;-26.142;27.992;2022-09-02T15:44:55;25.90;50.30
26479;DHT22;14163;-26.142;27.992;2022-09-02T15:47:24;25.90;50.30
26479;DHT22;14163;-26.142;27.992;2022-09-02T15:49:56;25.90;50.80
26479;DHT22;14163;-26.142;27.992;2022-09-02T15:52:25;25.90;50.60
26479;DHT22;14163;-26.142;27.992;2022-09-02T15:54:54;25.80;50.60